createdAt,value
2019-01-21T00:00:58.890Z,19.98
2019-01-21T00:03:42.716Z,21.43
2019-01-21T00:06:33.769Z,26.90
2019-01-21T00:09:17.607Z,20.13
2019-01-21T00:12:08.582Z,21.60
2019-01-21T00:14:52.667Z,22.10
2019-01-21T00:17:43.647Z,21.90
2019-01-21T00:20:27.065Z,23.27
2019-01-21T00:23:18.409Z,22.93
2019-01-21T00:26:02.808Z,20.00
2019-01-21T00:28:46.222Z,22.03
2019-01-21T00:31:29.854Z,19.52
2019-01-21T00:34:20.889Z,25.17
2019-01-21T00:37:04.305Z,24.90
2019-01-21T00:39:55.630Z,23.92
2019-01-21T00:42:39.682Z,22.77
2019-01-21T00:45:30.725Z,23.47
2019-01-21T00:48:14.333Z,25.03
2019-01-21T00:51:05.391Z,23.93
2019-01-21T00:53:48.861Z,23.20
2019-01-21T00:56:39.934Z,21.80
2019-01-21T00:59:23.850Z,20.40
2019-01-21T01:02:14.914Z,21.80
2019-01-21T01:04:58.618Z,20.27
2019-01-21T01:07:41.990Z,18.30
2019-01-21T01:10:32.949Z,22.20
2019-01-21T01:13:16.762Z,20.23
2019-01-21T01:16:07.799Z,21.87
2019-01-21T01:18:51.758Z,18.67
2019-01-21T01:22:02.244Z,24.55
2019-01-21T01:24:45.800Z,22.60
2019-01-21T01:27:36.850Z,21.07
2019-01-21T01:30:22.010Z,21.82
2019-01-21T01:33:12.983Z,22.53
2019-01-21T01:35:56.565Z,20.87
2019-01-21T01:38:47.540Z,23.30
2019-01-21T01:41:31.330Z,21.85
2019-01-21T01:44:22.677Z,20.20
2019-01-21T01:47:06.900Z,19.00
2019-01-21T01:49:57.947Z,21.57
2019-01-21T01:52:41.590Z,20.00
2019-01-21T01:59:02.094Z,21.27
2019-01-21T02:01:46.329Z,21.83
2019-01-21T02:04:29.841Z,21.50
2019-01-21T02:07:20.806Z,18.67
2019-01-21T02:10:04.868Z,23.53
2019-01-21T02:15:58.233Z,21.57
2019-01-21T02:18:56.670Z,22.50
2019-01-21T02:21:48.023Z,22.10
2019-01-21T02:24:34.408Z,22.47
2019-01-21T02:30:51.514Z,23.75
2019-01-21T02:33:46.571Z,23.77
2019-01-21T02:37:03.886Z,22.20
2019-01-21T02:40:12.527Z,25.80
2019-01-21T02:43:41.933Z,24.25
2019-01-21T02:46:39.198Z,21.17
2019-01-21T02:49:41.853Z,22.20
2019-01-21T02:53:11.282Z,23.60
2019-01-21T02:56:14.720Z,24.47
2019-01-21T02:59:44.156Z,21.47
2019-01-21T03:02:37.783Z,22.90
2019-01-21T03:06:12.836Z,24.87
2019-01-21T03:09:42.247Z,23.20
2019-01-21T03:12:48.418Z,23.57
2019-01-21T03:15:51.902Z,23.20
2019-01-21T03:19:21.336Z,23.20
2019-01-21T03:22:24.478Z,21.07
2019-01-21T03:25:27.228Z,19.23
2019-01-21T03:28:56.623Z,21.90
2019-01-21T03:31:59.574Z,20.80
2019-01-21T03:35:28.967Z,22.57
2019-01-21T03:38:31.827Z,21.00
2019-01-21T03:42:01.501Z,21.00
2019-01-21T03:45:05.174Z,22.87
2019-01-21T03:48:34.551Z,21.87
2019-01-21T03:51:37.862Z,22.77
2019-01-21T03:54:50.983Z,22.30
2019-01-21T03:57:40.932Z,21.20
2019-01-21T04:00:36.989Z,20.13
2019-01-21T04:03:40.549Z,19.70
2019-01-21T04:06:53.217Z,25.17
2019-01-21T04:09:56.263Z,21.33
2019-01-21T04:13:25.702Z,24.20
2019-01-21T04:16:29.035Z,24.07
2019-01-21T04:23:43.179Z,24.20
2019-01-21T04:26:46.108Z,27.10
2019-01-21T04:30:15.520Z,25.00
2019-01-21T04:33:24.740Z,26.57
2019-01-21T04:36:54.159Z,24.80
2019-01-21T04:39:57.673Z,28.52
2019-01-21T04:43:00.296Z,25.40
2019-01-21T04:46:19.087Z,23.77
2019-01-21T04:49:44.268Z,25.23
2019-01-21T04:52:59.671Z,23.62
2019-01-21T04:56:02.930Z,29.00
2019-01-21T04:59:32.309Z,20.17
2019-01-21T05:02:23.480Z,26.23
2019-01-21T05:09:29.975Z,28.30
2019-01-21T05:12:33.315Z,30.60
2019-01-21T05:16:02.701Z,22.90
2019-01-21T05:18:55.029Z,27.37
2019-01-21T05:22:24.419Z,30.68
2019-01-21T05:25:27.159Z,35.67
2019-01-21T05:28:56.548Z,35.40
2019-01-21T05:32:05.367Z,27.93
2019-01-21T05:35:45.680Z,33.10
2019-01-21T05:38:51.260Z,32.67
2019-01-21T05:42:11.325Z,39.80
2019-01-21T05:45:19.670Z,32.75
2019-01-21T05:48:07.171Z,37.43
2019-01-21T05:55:10.721Z,23.97
2019-01-21T05:58:13.625Z,37.30
2019-01-21T06:01:28.497Z,33.00
2019-01-21T06:04:25.711Z,30.07
2019-01-21T06:07:55.141Z,40.93
2019-01-21T06:10:47.571Z,36.53
2019-01-21T06:13:40.738Z,27.40
2019-01-21T06:16:54.757Z,39.23
2019-01-21T06:19:49.982Z,35.65
2019-01-21T06:23:19.366Z,30.53
2019-01-21T06:26:22.466Z,38.77
2019-01-21T06:29:51.887Z,40.03
2019-01-21T06:32:55.220Z,28.17
2019-01-21T06:36:24.649Z,35.58
2019-01-21T06:39:28.013Z,32.07
2019-01-21T06:42:58.374Z,78.60
2019-01-21T06:46:01.661Z,35.33
2019-01-21T06:49:18.661Z,28.60
2019-01-21T06:52:21.617Z,36.77
2019-01-21T06:55:51.122Z,38.10
2019-01-21T06:58:43.716Z,39.05
2019-01-21T07:05:45.401Z,36.60
2019-01-21T07:08:35.068Z,26.20
2019-01-21T07:11:51.046Z,41.20
2019-01-21T07:14:42.169Z,43.08
2019-01-21T07:18:11.727Z,44.23
2019-01-21T07:21:08.216Z,40.60
2019-01-21T07:24:00.969Z,34.45
2019-01-21T07:27:30.371Z,25.93
2019-01-21T07:30:33.339Z,45.87
2019-01-21T07:34:02.751Z,38.10
2019-01-21T07:37:05.524Z,37.40
2019-01-21T07:40:08.606Z,37.73
2019-01-21T07:43:38.016Z,39.63
2019-01-21T07:46:41.683Z,31.63
2019-01-21T07:49:32.444Z,35.57
2019-01-21T07:53:02.085Z,44.60
2019-01-21T07:56:04.685Z,41.37
2019-01-21T07:59:22.804Z,38.40
2019-01-21T08:02:10.666Z,41.53
2019-01-21T08:05:13.918Z,34.10
2019-01-21T08:08:01.793Z,35.33
2019-01-21T08:11:04.992Z,39.43
2019-01-21T08:14:18.896Z,35.30
2019-01-21T08:17:22.236Z,35.63
2019-01-21T08:20:25.361Z,42.50
2019-01-21T08:23:54.750Z,36.53
2019-01-21T08:26:42.585Z,33.10
2019-01-21T08:30:11.971Z,41.13
2019-01-21T08:33:21.070Z,30.07
2019-01-21T08:40:15.722Z,35.40
2019-01-21T08:43:08.762Z,39.27
2019-01-21T08:46:39.129Z,40.80
2019-01-21T08:49:45.307Z,37.90
2019-01-21T08:53:02.560Z,40.95
2019-01-21T08:56:06.098Z,40.17
2019-01-21T08:59:23.273Z,40.90
2019-01-21T09:02:51.056Z,36.10
2019-01-21T09:06:05.414Z,38.00
2019-01-21T09:09:34.792Z,43.98
2019-01-21T09:12:37.809Z,36.50
2019-01-21T09:16:07.193Z,22.03
2019-01-21T09:19:10.175Z,43.33
2019-01-21T09:22:33.415Z,39.93
2019-01-21T09:25:36.345Z,30.50
2019-01-21T09:28:49.682Z,33.80
2019-01-21T09:31:52.632Z,30.08
2019-01-21T09:39:10.406Z,26.37
2019-01-21T09:42:29.022Z,30.20
2019-01-21T09:45:58.419Z,34.83
2019-01-21T09:48:41.773Z,26.73
2019-01-21T09:51:24.720Z,35.27
2019-01-21T09:54:15.931Z,40.80
2019-01-21T09:56:59.342Z,27.23
2019-01-21T10:00:13.023Z,35.73
2019-01-21T10:02:56.561Z,33.77
2019-01-21T10:05:48.599Z,39.37
2019-01-21T10:08:38.216Z,37.08
2019-01-21T10:11:52.880Z,41.67
2019-01-21T10:14:49.525Z,35.73
2019-01-21T10:18:18.915Z,33.80
2019-01-21T10:21:21.515Z,37.93
2019-01-21T10:24:36.455Z,36.33
2019-01-21T10:27:45.497Z,30.73
2019-01-21T10:34:58.781Z,36.45
2019-01-21T10:37:50.274Z,39.77
2019-01-21T10:41:12.920Z,44.25
2019-01-21T10:44:08.968Z,44.40
2019-01-21T10:47:26.769Z,45.57
2019-01-21T10:50:30.610Z,37.50
2019-01-21T10:53:39.722Z,36.87
2019-01-21T10:57:02.048Z,45.83
2019-01-21T11:00:04.578Z,40.07
2019-01-21T11:03:22.486Z,45.43
2019-01-21T11:06:25.539Z,37.40
2019-01-21T11:09:34.479Z,37.65
2019-01-21T11:13:03.862Z,39.80
2019-01-21T11:16:06.850Z,40.75
2019-01-21T11:19:10.756Z,36.13
2019-01-21T11:22:40.216Z,38.87
2019-01-21T11:25:42.709Z,39.67
2019-01-21T11:28:36.577Z,46.60
2019-01-21T11:32:05.958Z,45.53
2019-01-21T11:35:00.207Z,6.50
2019-01-21T11:38:29.593Z,43.60
2019-01-21T11:41:20.414Z,40.33
2019-01-21T11:44:49.804Z,41.10
2019-01-21T11:47:43.961Z,46.25
2019-01-21T11:51:07.842Z,37.25
2019-01-21T11:54:10.780Z,40.93
2019-01-21T11:57:40.185Z,40.30
2019-01-21T12:00:31.359Z,34.33
2019-01-21T12:03:23.675Z,41.03
2019-01-21T12:06:20.636Z,37.37
2019-01-21T12:09:46.066Z,36.90
2019-01-21T12:12:35.837Z,35.68
2019-01-21T12:16:05.252Z,38.40
2019-01-21T12:19:07.999Z,41.60
2019-01-21T12:22:31.218Z,34.83
2019-01-21T12:25:19.867Z,32.20
2019-01-21T12:28:49.246Z,36.80
2019-01-21T12:31:51.832Z,23.45
2019-01-21T12:34:38.372Z,19.27
2019-01-21T12:37:52.776Z,37.50
2019-01-21T12:40:56.306Z,28.35
2019-01-21T12:44:26.664Z,45.67
2019-01-21T12:47:20.220Z,39.70
2019-01-21T12:50:29.084Z,38.27
2019-01-21T12:53:58.459Z,41.90
2019-01-21T12:57:01.564Z,36.37
2019-01-21T13:00:30.945Z,36.63
2019-01-21T13:03:36.358Z,41.87
2019-01-21T13:06:41.722Z,39.50
2019-01-21T13:10:11.130Z,42.47
2019-01-21T13:13:19.894Z,40.40
2019-01-21T13:16:23.191Z,37.60
2019-01-21T13:19:52.835Z,39.25
2019-01-21T13:22:42.705Z,42.05
2019-01-21T13:25:49.029Z,38.23
2019-01-21T13:29:05.525Z,47.03
2019-01-21T13:32:08.728Z,39.93
2019-01-21T13:35:17.331Z,35.33
2019-01-21T13:38:19.313Z,45.50
2019-01-21T13:41:25.497Z,41.60
2019-01-21T13:44:54.871Z,36.70
2019-01-21T13:47:47.807Z,39.65
2019-01-21T13:51:14.099Z,31.37
2019-01-21T13:54:16.554Z,40.60
2019-01-21T13:57:25.833Z,45.57
2019-01-21T14:00:55.265Z,43.50
2019-01-21T14:04:03.973Z,42.30
2019-01-21T14:07:06.763Z,41.95
2019-01-21T14:10:23.007Z,43.23
2019-01-21T14:13:26.467Z,45.10
2019-01-21T14:16:35.922Z,41.37
2019-01-21T14:19:52.347Z,45.47
2019-01-21T14:22:54.810Z,47.88
2019-01-21T14:26:24.466Z,46.57
2019-01-21T14:29:16.914Z,43.50
2019-01-21T14:32:46.296Z,61.27
2019-01-21T14:35:49.174Z,52.65
2019-01-21T14:39:18.548Z,50.33
2019-01-21T14:42:12.370Z,51.90
2019-01-21T14:45:41.768Z,47.58
2019-01-21T14:48:44.611Z,38.87
2019-01-21T14:52:13.992Z,52.03
2019-01-21T14:55:06.397Z,47.77
2019-01-21T14:58:36.777Z,49.93
2019-01-21T15:01:40.187Z,47.77
2019-01-21T15:04:48.613Z,47.20
2019-01-21T15:07:57.257Z,50.77
2019-01-21T15:11:26.661Z,45.40
2019-01-21T15:14:31.166Z,45.07
2019-01-21T15:17:39.826Z,46.53
2019-01-21T15:21:09.322Z,43.23
2019-01-21T15:24:12.481Z,45.87
2019-01-21T15:27:11.362Z,43.97
2019-01-21T15:30:02.656Z,45.57
2019-01-21T15:33:17.442Z,42.17
2019-01-21T15:36:11.757Z,43.97
2019-01-21T15:39:25.854Z,41.43
2019-01-21T15:42:34.683Z,37.47
2019-01-21T15:46:04.147Z,49.13
2019-01-21T15:49:06.709Z,45.47
2019-01-21T15:52:36.099Z,39.23
2019-01-21T15:55:43.393Z,45.28
2019-01-21T15:59:12.778Z,48.68
2019-01-21T16:02:02.749Z,42.30
2019-01-21T16:05:05.915Z,45.97
2019-01-21T16:08:22.136Z,38.50
2019-01-21T16:11:14.278Z,42.97
2019-01-21T16:14:03.414Z,45.27
2019-01-21T16:17:32.799Z,47.20
2019-01-21T16:20:20.498Z,41.33
2019-01-21T16:23:49.993Z,43.97
2019-01-21T16:26:52.651Z,45.05
2019-01-21T16:29:38.554Z,39.73
2019-01-21T16:33:07.955Z,36.38
2019-01-21T16:36:10.750Z,40.87
2019-01-21T16:39:40.401Z,40.10
2019-01-21T16:42:23.878Z,43.67
2019-01-21T16:45:14.919Z,42.80
2019-01-21T16:47:58.981Z,37.38
2019-01-21T16:50:50.191Z,47.20
2019-01-21T16:53:34.134Z,42.20
2019-01-21T16:56:25.100Z,45.00
2019-01-21T16:59:09.138Z,49.07
2019-01-21T17:02:00.498Z,51.85
2019-01-21T17:04:44.607Z,57.37
2019-01-21T17:07:35.559Z,54.10
2019-01-21T17:10:19.135Z,55.87
2019-01-21T17:13:10.235Z,51.92
2019-01-21T17:15:54.179Z,98.13
2019-01-21T17:18:45.145Z,94.17
2019-01-21T17:21:28.672Z,63.37
2019-01-21T17:24:19.701Z,54.87
2019-01-21T17:27:10.735Z,56.00
2019-01-21T17:29:54.457Z,52.73
2019-01-21T17:32:45.496Z,49.95
2019-01-21T17:35:28.961Z,55.92
2019-01-21T17:38:19.981Z,56.10
2019-01-21T17:41:03.604Z,52.07
2019-01-21T17:43:55.518Z,56.73
2019-01-21T17:46:39.596Z,44.13
2019-01-21T17:49:30.572Z,46.37
2019-01-21T17:52:02.751Z,44.07
2019-01-21T17:54:53.786Z,48.77
2019-01-21T17:57:37.833Z,50.90
2019-01-21T18:00:29.332Z,42.47
2019-01-21T18:03:13.452Z,46.20
2019-01-21T18:05:57.199Z,41.83
2019-01-21T18:15:12.053Z,46.80
2019-01-21T18:17:55.541Z,49.63
2019-01-21T18:20:39.532Z,61.53
2019-01-21T18:23:30.564Z,51.43
2019-01-21T18:26:13.930Z,49.23
2019-01-21T18:29:05.233Z,44.10
2019-01-21T18:31:49.143Z,44.87
2019-01-21T18:34:40.181Z,44.50
2019-01-21T18:37:24.478Z,44.60
2019-01-21T18:40:17.508Z,49.25
2019-01-21T18:43:02.380Z,48.10
2019-01-21T18:45:53.515Z,44.77
2019-01-21T18:48:37.138Z,47.93
2019-01-21T18:51:28.569Z,41.00
2019-01-21T18:54:12.670Z,46.67
2019-01-21T18:57:03.676Z,49.73
2019-01-21T18:59:46.940Z,49.90
2019-01-21T19:02:38.006Z,48.67
2019-01-21T19:05:22.803Z,40.97
2019-01-21T19:08:13.954Z,48.83
2019-01-21T19:10:57.567Z,45.93
2019-01-21T19:13:48.705Z,40.43
2019-01-21T19:16:32.630Z,45.73
2019-01-21T19:19:23.760Z,53.50
2019-01-21T19:22:14.643Z,36.17
2019-01-21T19:25:05.951Z,41.10
2019-01-21T19:27:49.830Z,34.03
2019-01-21T19:30:40.873Z,39.15
2019-01-21T19:33:24.687Z,35.00
2019-01-21T19:36:08.592Z,37.50
2019-01-21T19:38:59.540Z,40.97
2019-01-21T19:41:43.448Z,45.73
2019-01-21T19:44:34.471Z,37.60
2019-01-21T19:47:18.045Z,44.23
2019-01-21T19:50:10.009Z,43.90
2019-01-21T19:52:53.560Z,33.50
2019-01-21T19:56:04.140Z,35.73
2019-01-21T19:58:48.064Z,31.60
2019-01-21T20:01:31.505Z,38.02
2019-01-21T20:04:15.131Z,44.55
2019-01-21T20:06:58.793Z,44.57
2019-01-21T20:09:50.217Z,40.77
2019-01-21T20:12:34.252Z,42.58
2019-01-21T20:15:25.275Z,38.10
2019-01-21T20:18:08.883Z,38.57
2019-01-21T20:20:59.931Z,37.40
2019-01-21T20:23:43.319Z,41.93
2019-01-21T20:26:34.527Z,37.60
2019-01-21T20:29:18.381Z,34.47
2019-01-21T20:32:02.370Z,41.67
2019-01-21T20:34:53.389Z,37.13
2019-01-21T20:37:37.120Z,41.25
2019-01-21T20:40:47.532Z,36.40
2019-01-21T20:43:31.344Z,40.75
2019-01-21T20:46:22.373Z,44.17
2019-01-21T20:52:14.264Z,43.53
2019-01-21T20:55:14.975Z,38.47
2019-01-21T20:57:58.349Z,38.40
2019-01-21T21:00:50.342Z,33.33
2019-01-21T21:03:34.295Z,25.32
2019-01-21T21:09:28.065Z,34.78
2019-01-21T21:12:25.677Z,33.13
2019-01-21T21:15:14.942Z,30.47
2019-01-21T21:18:06.583Z,32.07
2019-01-21T21:20:49.884Z,38.57
2019-01-21T21:23:40.860Z,42.45
2019-01-21T21:26:24.838Z,43.40
2019-01-21T21:29:15.877Z,39.80
2019-01-21T21:31:59.173Z,41.77
2019-01-21T21:34:50.132Z,37.23
2019-01-21T21:37:34.274Z,32.33
2019-01-21T21:40:25.475Z,43.17
2019-01-21T21:43:09.585Z,33.47
2019-01-21T21:46:00.719Z,42.90
2019-01-21T21:48:44.524Z,25.07
2019-01-21T21:51:35.621Z,36.73
2019-01-21T21:54:17.985Z,35.50
2019-01-21T21:57:09.014Z,38.17
2019-01-21T21:59:52.641Z,35.60
2019-01-21T22:02:43.813Z,34.65
2019-01-21T22:05:27.436Z,34.70
2019-01-21T22:08:18.474Z,38.13
2019-01-21T22:11:02.128Z,33.05
2019-01-21T22:13:46.136Z,34.13
2019-01-21T22:16:38.511Z,36.90
2019-01-21T22:19:22.373Z,34.00
2019-01-21T22:22:13.598Z,25.87
2019-01-21T22:24:57.266Z,28.43
2019-01-21T22:27:48.370Z,30.90
2019-01-21T22:30:32.461Z,31.70
2019-01-21T22:33:23.499Z,33.07
2019-01-21T22:36:07.509Z,34.57
2019-01-21T22:38:51.361Z,34.40
2019-01-21T22:41:42.712Z,41.25
2019-01-21T22:44:26.565Z,35.78
2019-01-21T22:47:17.528Z,34.17
2019-01-21T22:50:01.411Z,33.00
2019-01-21T22:52:52.737Z,36.53
2019-01-21T22:55:36.747Z,35.70
2019-01-21T22:58:28.970Z,34.80
2019-01-21T23:01:18.624Z,33.80
2019-01-21T23:04:13.588Z,32.03
2019-01-21T23:06:57.375Z,33.10
2019-01-21T23:09:41.631Z,32.10
2019-01-21T23:12:33.623Z,33.95
2019-01-21T23:15:17.153Z,36.83
2019-01-21T23:18:08.523Z,35.63
2019-01-21T23:20:52.683Z,42.47
2019-01-21T23:23:44.073Z,39.20
2019-01-21T23:26:29.566Z,35.83
2019-01-21T23:29:20.540Z,29.30
2019-01-21T23:32:04.540Z,32.17
2019-01-21T23:34:55.877Z,30.70
2019-01-21T23:37:39.722Z,17.13
2019-01-21T23:40:31.038Z,35.78
2019-01-21T23:43:14.914Z,36.47
2019-01-21T23:46:06.247Z,36.53
2019-01-21T23:48:50.023Z,29.80
2019-01-21T23:51:41.090Z,35.13
2019-01-21T23:54:24.718Z,30.53
2019-01-21T23:57:15.673Z,38.73
2019-01-21T23:59:59.366Z,34.10
